createdAt,value
2022-11-14T00:01:00.524Z,100809.16
2022-11-14T00:03:49.113Z,100817.41
2022-11-14T00:06:34.061Z,100814.94
2022-11-14T00:09:19.366Z,100818.69
2022-11-14T00:12:05.059Z,100812.03
2022-11-14T00:14:50.143Z,100812.16
2022-11-14T00:17:35.104Z,100810.75
2022-11-14T00:20:20.247Z,100810.53
2022-11-14T00:23:05.613Z,100811.69
2022-11-14T00:25:50.872Z,100805.06
2022-11-14T00:28:36.116Z,100795.09
2022-11-14T00:31:21.336Z,100787.06
2022-11-14T00:34:07.081Z,100786.38
2022-11-14T00:36:52.478Z,100782.34
2022-11-14T00:39:37.300Z,100785.47
2022-11-14T00:42:22.491Z,100786.06
2022-11-14T00:45:08.765Z,100784.06
2022-11-14T00:47:53.816Z,100783.50
2022-11-14T00:50:39.390Z,100771.78
2022-11-14T00:53:24.490Z,100769.59
2022-11-14T00:56:09.691Z,100782.00
2022-11-14T00:58:54.848Z,100779.91
2022-11-14T01:01:40.240Z,100775.72
2022-11-14T01:04:25.598Z,100776.41
2022-11-14T01:07:10.765Z,100774.91
2022-11-14T01:09:56.208Z,100773.03
2022-11-14T01:12:41.207Z,100770.16
2022-11-14T01:15:26.442Z,100764.81
2022-11-14T01:18:14.450Z,100766.66
2022-11-14T01:20:59.977Z,100759.47
2022-11-14T01:23:45.246Z,100761.09
2022-11-14T01:26:30.428Z,100756.56
2022-11-14T01:29:15.612Z,100753.91
2022-11-14T01:32:00.751Z,100746.94
2022-11-14T01:34:46.607Z,100743.94
2022-11-14T01:37:31.969Z,100746.03
2022-11-14T01:40:17.494Z,100739.16
2022-11-14T01:43:18.995Z,100736.03
2022-11-14T01:46:42.095Z,100726.97
2022-11-14T01:49:38.351Z,100725.81
2022-11-14T01:52:38.225Z,100720.47
2022-11-14T01:55:24.131Z,100710.50
2022-11-14T01:58:10.964Z,100706.91
2022-11-14T02:01:03.872Z,100692.41
2022-11-14T02:04:08.853Z,100683.13
2022-11-14T02:07:15.380Z,100685.06
2022-11-14T02:10:16.136Z,100681.38
2022-11-14T02:13:07.349Z,100675.50
2022-11-14T02:15:56.242Z,100676.66
2022-11-14T02:18:42.595Z,100676.66
2022-11-14T02:21:31.624Z,100681.06
2022-11-14T02:24:17.359Z,100684.78
2022-11-14T02:30:25.621Z,100675.72
2022-11-14T02:33:22.864Z,100670.59
2022-11-14T02:36:22.273Z,100665.72
2022-11-14T02:39:12.635Z,100670.16
2022-11-14T02:42:01.437Z,100658.78
2022-11-14T02:44:56.264Z,100651.69
2022-11-14T02:47:42.260Z,100652.28
2022-11-14T02:50:52.081Z,100659.00
2022-11-14T02:53:58.484Z,100655.31
2022-11-14T03:00:29.519Z,100656.09
2022-11-14T03:06:45.445Z,100645.53
2022-11-14T03:10:04.846Z,100640.13
2022-11-14T03:13:00.813Z,100636.97
2022-11-14T03:15:47.138Z,100634.44
2022-11-14T03:18:39.572Z,100634.19
2022-11-14T03:21:25.969Z,100635.13
2022-11-14T03:24:14.316Z,100631.44
2022-11-14T03:27:12.508Z,100623.16
2022-11-14T03:30:06.864Z,100626.66
2022-11-14T03:32:59.221Z,100631.63
2022-11-14T03:35:45.814Z,100640.16
2022-11-14T03:38:35.300Z,100639.94
2022-11-14T03:41:30.136Z,100649.94
2022-11-14T03:44:16.278Z,100656.13
2022-11-14T03:47:03.536Z,100644.53
2022-11-14T03:49:49.704Z,100640.78
2022-11-14T03:52:38.694Z,100641.59
2022-11-14T03:55:25.277Z,100636.63
2022-11-14T03:58:19.919Z,100636.97
2022-11-14T04:01:05.796Z,100637.19
2022-11-14T04:04:00.713Z,100632.09
2022-11-14T04:06:52.115Z,100637.31
2022-11-14T04:09:41.194Z,100628.84
2022-11-14T04:12:36.330Z,100623.72
2022-11-14T04:15:22.681Z,100627.19
2022-11-14T04:18:15.379Z,100627.09
2022-11-14T04:21:01.914Z,100619.59
2022-11-14T04:23:56.322Z,100617.88
2022-11-14T04:26:45.046Z,100630.34
2022-11-14T04:33:11.280Z,100616.50
2022-11-14T04:36:06.095Z,100620.09
2022-11-14T04:39:03.735Z,100610.97
2022-11-14T04:41:49.149Z,100616.28
2022-11-14T04:44:34.343Z,100618.00
2022-11-14T04:47:20.912Z,100612.66
2022-11-14T04:50:06.535Z,100616.38
2022-11-14T04:52:53.614Z,100613.91
2022-11-14T04:55:38.640Z,100605.59
2022-11-14T04:58:24.233Z,100609.13
2022-11-14T05:01:14.418Z,100609.22
2022-11-14T05:04:01.009Z,100605.56
2022-11-14T05:06:46.502Z,100607.03
2022-11-14T05:09:31.730Z,100602.53
2022-11-14T05:12:17.108Z,100601.16
2022-11-14T05:15:02.872Z,100607.41
2022-11-14T05:17:47.974Z,100602.28
2022-11-14T05:20:33.282Z,100598.44
2022-11-14T05:23:21.438Z,100597.81
2022-11-14T05:26:11.733Z,100601.38
2022-11-14T05:28:56.909Z,100605.72
2022-11-14T05:31:42.101Z,100604.41
2022-11-14T05:34:27.539Z,100608.13
2022-11-14T05:37:13.123Z,100602.53
2022-11-14T05:39:58.201Z,100614.47
2022-11-14T05:42:43.602Z,100597.84
2022-11-14T05:45:28.879Z,100592.69
2022-11-14T05:48:14.200Z,100586.09
2022-11-14T05:51:01.274Z,100585.66
2022-11-14T05:53:46.592Z,100588.56
2022-11-14T05:56:31.725Z,100599.22
2022-11-14T05:59:17.137Z,100585.66
2022-11-14T06:02:02.571Z,100580.31
2022-11-14T06:04:47.748Z,100583.34
2022-11-14T06:07:33.106Z,100570.88
2022-11-14T06:10:18.288Z,100556.25
2022-11-14T06:13:03.691Z,100568.50
2022-11-14T06:15:48.933Z,100567.78
2022-11-14T06:18:35.026Z,100565.25
2022-11-14T06:21:22.137Z,100567.19
2022-11-14T06:24:07.718Z,100563.34
2022-11-14T06:26:52.657Z,100561.22
2022-11-14T06:29:38.148Z,100559.72
2022-11-14T06:32:23.384Z,100552.78
2022-11-14T06:35:08.910Z,100556.53
2022-11-14T06:37:54.682Z,100556.84
2022-11-14T06:40:40.230Z,100564.88
2022-11-14T06:43:25.423Z,100567.41
2022-11-14T06:46:13.580Z,100563.03
2022-11-14T06:48:58.578Z,100560.34
2022-11-14T06:51:43.690Z,100557.44
2022-11-14T06:54:29.109Z,100565.09
2022-11-14T06:57:14.350Z,100569.94
2022-11-14T06:59:59.647Z,100571.47
2022-11-14T07:02:48.893Z,100568.56
2022-11-14T07:05:34.374Z,100560.22
2022-11-14T07:08:21.195Z,100561.50
2022-11-14T07:11:09.397Z,100560.34
2022-11-14T07:13:57.523Z,100557.13
2022-11-14T07:16:42.660Z,100562.88
2022-11-14T07:19:28.101Z,100572.75
2022-11-14T07:22:13.227Z,100569.50
2022-11-14T07:24:58.447Z,100581.09
2022-11-14T07:27:43.469Z,100581.44
2022-11-14T07:30:28.791Z,100575.41
2022-11-14T07:33:14.152Z,100579.69
2022-11-14T07:35:59.567Z,100583.41
2022-11-14T07:38:44.590Z,100576.34
2022-11-14T07:41:32.098Z,100584.81
2022-11-14T07:44:17.301Z,100586.03
2022-11-14T07:47:02.543Z,100589.00
2022-11-14T07:49:47.651Z,100583.47
2022-11-14T07:52:33.459Z,100597.69
2022-11-14T07:55:19.218Z,100598.25
2022-11-14T07:58:04.787Z,100600.03
2022-11-14T08:00:49.978Z,100607.28
2022-11-14T08:03:35.344Z,100595.47
2022-11-14T08:06:20.595Z,100586.44
2022-11-14T08:09:05.690Z,100587.66
2022-11-14T08:11:51.799Z,100579.47
2022-11-14T08:14:36.781Z,100585.84
2022-11-14T08:17:22.962Z,100589.81
2022-11-14T08:20:09.777Z,100593.53
2022-11-14T08:23:01.691Z,100598.97
2022-11-14T08:25:47.086Z,100587.19
2022-11-14T08:28:33.005Z,100578.22
2022-11-14T08:31:18.780Z,100574.50
2022-11-14T08:34:04.073Z,100567.25
2022-11-14T08:36:49.640Z,100565.28
2022-11-14T08:39:34.758Z,100561.34
2022-11-14T08:42:19.715Z,100561.34
2022-11-14T08:45:05.686Z,100556.28
2022-11-14T08:47:52.555Z,100574.03
2022-11-14T08:50:37.846Z,100578.91
2022-11-14T08:53:23.692Z,100581.97
2022-11-14T08:56:10.905Z,100570.31
2022-11-14T08:58:56.050Z,100575.16
2022-11-14T09:01:41.394Z,100569.69
2022-11-14T09:04:26.853Z,100576.13
2022-11-14T09:07:12.046Z,100581.13
2022-11-14T09:09:57.596Z,100576.16
2022-11-14T09:12:42.833Z,100574.53
2022-11-14T09:15:28.908Z,100572.50
2022-11-14T09:18:13.856Z,100579.97
2022-11-14T09:21:00.968Z,100579.84
2022-11-14T09:23:49.580Z,100578.75
2022-11-14T09:26:34.949Z,100571.16
2022-11-14T09:29:20.301Z,100568.53
2022-11-14T09:32:05.540Z,100565.28
2022-11-14T09:34:50.833Z,100568.53
2022-11-14T09:37:37.051Z,100562.53
2022-11-14T09:40:22.580Z,100566.44
2022-11-14T09:43:28.889Z,100561.13
2022-11-14T09:46:22.279Z,100559.84
2022-11-14T09:49:29.030Z,100563.91
2022-11-14T09:52:32.947Z,100560.25
2022-11-14T09:55:35.149Z,100560.69
2022-11-14T09:58:23.171Z,100572.59
2022-11-14T10:02:00.378Z,100565.28
2022-11-14T10:05:03.648Z,100556.50
2022-11-14T10:08:16.373Z,100554.19
2022-11-14T10:11:16.975Z,100559.50
2022-11-14T10:14:13.907Z,100556.50
2022-11-14T10:17:23.997Z,100548.94
2022-11-14T10:20:40.844Z,100550.88
2022-11-14T10:23:38.308Z,100541.75
2022-11-14T10:26:43.256Z,100523.97
2022-11-14T10:29:47.299Z,100528.25
2022-11-14T10:32:47.373Z,100528.25
2022-11-14T10:35:41.701Z,100531.13
2022-11-14T10:38:35.263Z,100521.91
2022-11-14T10:41:49.778Z,100517.69
2022-11-14T10:44:34.931Z,100518.53
2022-11-14T10:47:22.757Z,100508.63
2022-11-14T10:50:23.560Z,100498.41
2022-11-14T10:53:24.440Z,100497.28
2022-11-14T10:56:14.645Z,100489.56
2022-11-14T10:58:59.826Z,100499.88
2022-11-14T11:01:56.991Z,100498.66
2022-11-14T11:04:44.063Z,100480.16
2022-11-14T11:07:47.896Z,100478.31
2022-11-14T11:10:55.301Z,100473.78
2022-11-14T11:13:51.752Z,100472.66
2022-11-14T11:16:36.648Z,100477.09
2022-11-14T11:19:27.183Z,100470.50
2022-11-14T11:22:37.358Z,100471.50
2022-11-14T11:25:28.138Z,100467.38
2022-11-14T11:28:14.917Z,100460.34
2022-11-14T11:31:03.233Z,100463.75
2022-11-14T11:33:48.855Z,100453.63
2022-11-14T11:36:40.290Z,100464.09
2022-11-14T11:39:31.975Z,100453.38
2022-11-14T11:43:31.600Z,100449.13
2022-11-14T11:45:50.499Z,100451.25
2022-11-14T11:48:39.701Z,100449.00
2022-11-14T11:51:27.085Z,100449.69
2022-11-14T11:54:18.336Z,100446.72
2022-11-14T11:57:13.990Z,100441.94
2022-11-14T12:00:20.404Z,100448.44
2022-11-14T12:03:12.283Z,100446.31
2022-11-14T12:06:20.296Z,100445.22
2022-11-14T12:10:08.331Z,100446.28
2022-11-14T12:12:45.017Z,100448.41
2022-11-14T12:15:45.773Z,100450.03
2022-11-14T12:18:52.121Z,100458.84
2022-11-14T12:21:58.590Z,100443.53
2022-11-14T12:24:47.340Z,100448.59
2022-11-14T12:27:54.050Z,100444.38
2022-11-14T12:30:42.430Z,100447.97
2022-11-14T12:33:33.124Z,100450.16
2022-11-14T12:36:18.812Z,100451.25
2022-11-14T12:39:04.282Z,100439.44
2022-11-14T12:41:49.453Z,100443.44
2022-11-14T12:44:39.785Z,100438.81
2022-11-14T12:47:28.803Z,100442.03
2022-11-14T12:50:39.879Z,100446.31
2022-11-14T12:53:37.423Z,100436.69
2022-11-14T12:56:31.517Z,100447.47
2022-11-14T12:59:28.819Z,100439.38
2022-11-14T13:02:46.639Z,100438.19
2022-11-14T13:05:48.718Z,100432.75
2022-11-14T13:08:56.238Z,100437.00
2022-11-14T13:12:01.519Z,100427.56
2022-11-14T13:15:14.226Z,100437.41
2022-11-14T13:18:23.022Z,100432.59
2022-11-14T13:21:46.195Z,100425.00
2022-11-14T13:24:59.524Z,100419.69
2022-11-14T13:28:06.494Z,100412.44
2022-11-14T13:31:15.059Z,100412.53
2022-11-14T13:34:01.230Z,100415.97
2022-11-14T13:36:58.558Z,100414.38
2022-11-14T13:40:13.873Z,100421.28
2022-11-14T13:43:04.813Z,100413.72
2022-11-14T13:46:16.869Z,100421.63
2022-11-14T13:49:14.667Z,100409.09
2022-11-14T13:51:59.970Z,100409.38
2022-11-14T13:54:49.617Z,100409.41
2022-11-14T13:57:50.048Z,100404.84
2022-11-14T14:01:04.881Z,100403.97
2022-11-14T14:04:08.886Z,100406.59
2022-11-14T14:07:33.108Z,100402.25
2022-11-14T14:10:40.019Z,100414.53
2022-11-14T14:13:44.839Z,100411.28
2022-11-14T14:16:51.549Z,100410.44
2022-11-14T14:20:02.082Z,100407.44
2022-11-14T14:22:58.609Z,100406.91
2022-11-14T14:26:00.114Z,100405.84
2022-11-14T14:28:56.245Z,100408.28
2022-11-14T14:31:42.145Z,100404.84
2022-11-14T14:34:29.758Z,100410.19
2022-11-14T14:37:25.109Z,100400.50
2022-11-14T14:40:24.775Z,100402.94
2022-11-14T14:43:31.409Z,100403.72
2022-11-14T14:46:25.550Z,100407.97
2022-11-14T14:49:10.757Z,100412.25
2022-11-14T14:51:58.758Z,100405.03
2022-11-14T14:54:54.831Z,100409.63
2022-11-14T14:57:40.217Z,100410.72
2022-11-14T15:00:26.281Z,100411.28
2022-11-14T15:03:11.601Z,100411.00
2022-11-14T15:06:02.381Z,100404.31
2022-11-14T15:08:47.914Z,100398.41
2022-11-14T15:11:35.161Z,100393.25
2022-11-14T15:14:25.648Z,100399.72
2022-11-14T15:17:11.962Z,100396.25
2022-11-14T15:19:57.031Z,100401.84
2022-11-14T15:22:42.435Z,100402.31
2022-11-14T15:25:27.841Z,100399.34
2022-11-14T15:28:19.705Z,100405.84
2022-11-14T15:31:05.884Z,100399.72
2022-11-14T15:34:23.718Z,100391.97
2022-11-14T15:37:16.077Z,100400.56
2022-11-14T15:40:21.684Z,100390.31
2022-11-14T15:43:48.384Z,100398.78
2022-11-14T15:46:33.572Z,100404.06
2022-11-14T15:49:27.474Z,100396.41
2022-11-14T15:52:30.488Z,100407.13
2022-11-14T15:55:19.224Z,100404.88
2022-11-14T15:58:27.023Z,100411.94
2022-11-14T16:01:19.215Z,100407.38
2022-11-14T16:04:04.877Z,100412.72
2022-11-14T16:06:50.132Z,100401.13
2022-11-14T16:09:37.770Z,100406.75
2022-11-14T16:12:22.933Z,100415.34
2022-11-14T16:15:08.619Z,100409.03
2022-11-14T16:17:54.053Z,100413.38
2022-11-14T16:20:39.650Z,100409.09
2022-11-14T16:23:24.964Z,100410.66
2022-11-14T16:26:10.441Z,100410.06
2022-11-14T16:28:57.024Z,100408.47
2022-11-14T16:31:42.457Z,100413.28
2022-11-14T16:34:27.779Z,100418.44
2022-11-14T16:37:14.487Z,100410.91
2022-11-14T16:39:59.926Z,100412.09
2022-11-14T16:42:45.865Z,100396.16
2022-11-14T16:45:31.296Z,100404.97
2022-11-14T16:48:16.688Z,100417.81
2022-11-14T16:51:14.819Z,100419.38
2022-11-14T16:54:05.501Z,100423.94
2022-11-14T16:56:50.840Z,100425.53
2022-11-14T16:59:36.350Z,100430.56
2022-11-14T17:02:21.835Z,100422.59
2022-11-14T17:05:07.201Z,100429.56
2022-11-14T17:07:52.053Z,100431.28
2022-11-14T17:10:45.304Z,100431.53
2022-11-14T17:13:31.882Z,100437.34
2022-11-14T17:16:17.518Z,100433.41
2022-11-14T17:19:02.916Z,100433.88
2022-11-14T17:21:47.916Z,100445.84
2022-11-14T17:24:33.297Z,100445.59
2022-11-14T17:27:18.454Z,100448.69
2022-11-14T17:30:04.026Z,100451.91
2022-11-14T17:32:53.731Z,100456.22
2022-11-14T17:35:41.960Z,100452.75
2022-11-14T17:38:27.092Z,100454.13
2022-11-14T17:41:12.429Z,100449.09
2022-11-14T17:44:01.742Z,100459.50
2022-11-14T17:46:47.816Z,100452.53
2022-11-14T17:49:33.210Z,100453.03
2022-11-14T17:52:19.035Z,100455.13
2022-11-14T17:55:04.342Z,100456.22
2022-11-14T17:57:49.362Z,100465.31
2022-11-14T18:00:34.809Z,100469.50
2022-11-14T18:03:20.913Z,100463.59
2022-11-14T18:06:11.405Z,100481.31
2022-11-14T18:08:56.393Z,100474.66
2022-11-14T18:11:41.674Z,100473.88
2022-11-14T18:14:26.972Z,100470.72
2022-11-14T18:17:13.569Z,100467.63
2022-11-14T18:20:01.583Z,100462.34
2022-11-14T18:22:46.649Z,100464.59
2022-11-14T18:25:31.717Z,100451.28
2022-11-14T18:28:17.439Z,100456.59
2022-11-14T18:31:04.524Z,100456.31
2022-11-14T18:33:49.718Z,100452.94
2022-11-14T18:36:34.974Z,100454.59
2022-11-14T18:39:20.205Z,100456.78
2022-11-14T18:42:05.835Z,100459.25
2022-11-14T18:44:51.410Z,100452.00
2022-11-14T18:47:36.561Z,100459.00
2022-11-14T18:50:21.710Z,100454.69
2022-11-14T18:53:06.901Z,100458.69
2022-11-14T18:55:53.252Z,100453.38
2022-11-14T18:58:39.878Z,100459.06
2022-11-14T19:01:28.336Z,100455.84
2022-11-14T19:04:17.076Z,100459.09
2022-11-14T19:07:03.646Z,100454.81
2022-11-14T19:09:49.123Z,100459.09
2022-11-14T19:12:34.441Z,100459.56
2022-11-14T19:15:19.807Z,100455.28
2022-11-14T19:18:05.231Z,100456.09
2022-11-14T19:21:00.897Z,100467.13
2022-11-14T19:23:46.565Z,100463.88
2022-11-14T19:26:32.348Z,100463.09
2022-11-14T19:29:17.327Z,100466.31
2022-11-14T19:32:02.806Z,100466.59
2022-11-14T19:34:48.086Z,100466.59
2022-11-14T19:37:33.401Z,100473.59
2022-11-14T19:40:18.858Z,100469.84
2022-11-14T19:43:07.491Z,100465.59
2022-11-14T19:45:53.065Z,100461.81
2022-11-14T19:48:38.954Z,100461.28
2022-11-14T19:51:24.971Z,100461.03
2022-11-14T19:54:11.136Z,100455.41
2022-11-14T19:56:55.996Z,100457.03
2022-11-14T19:59:41.580Z,100452.72
2022-11-14T20:02:28.561Z,100459.44
2022-11-14T20:05:13.800Z,100464.50
2022-11-14T20:07:59.157Z,100467.72
2022-11-14T20:11:01.155Z,100467.22
2022-11-14T20:13:46.523Z,100471.25
2022-11-14T20:16:34.207Z,100464.06
2022-11-14T20:19:19.522Z,100472.09
2022-11-14T20:22:06.607Z,100460.81
2022-11-14T20:24:52.048Z,100460.78
2022-11-14T20:27:37.487Z,100465.28
2022-11-14T20:30:24.067Z,100461.75
2022-11-14T20:33:09.527Z,100467.63
2022-11-14T20:35:55.465Z,100476.50
2022-11-14T20:38:41.522Z,100470.91
2022-11-14T20:41:26.629Z,100468.28
2022-11-14T20:44:12.064Z,100462.34
2022-11-14T20:46:57.639Z,100463.94
2022-11-14T20:49:44.227Z,100461.75
2022-11-14T20:52:29.287Z,100456.94
2022-11-14T20:55:15.655Z,100467.69
2022-11-14T20:58:01.043Z,100472.53
2022-11-14T21:00:46.141Z,100481.69
2022-11-14T21:03:31.972Z,100472.59
2022-11-14T21:06:17.578Z,100469.88
2022-11-14T21:09:03.220Z,100479.06
2022-11-14T21:11:48.599Z,100470.47
2022-11-14T21:14:34.205Z,100457.53
2022-11-14T21:17:19.348Z,100463.41
2022-11-14T21:20:05.060Z,100463.16
2022-11-14T21:22:50.114Z,100470.16
2022-11-14T21:25:35.592Z,100469.38
2022-11-14T21:28:21.043Z,100472.59
2022-11-14T21:31:18.557Z,100467.78
2022-11-14T21:34:10.282Z,100464.59
2022-11-14T21:36:55.335Z,100464.91
2022-11-14T21:39:40.740Z,100454.44
2022-11-14T21:42:26.001Z,100458.69
2022-11-14T21:45:11.482Z,100454.63
2022-11-14T21:47:56.371Z,100458.69
2022-11-14T21:50:41.726Z,100454.97
2022-11-14T21:53:28.262Z,100450.94
2022-11-14T21:56:24.199Z,100450.66
2022-11-14T21:59:14.572Z,100458.44
2022-11-14T22:02:18.506Z,100460.88
2022-11-14T22:05:03.786Z,100467.03
2022-11-14T22:07:48.790Z,100463.00
2022-11-14T22:10:33.882Z,100464.31
2022-11-14T22:13:19.518Z,100464.59
2022-11-14T22:16:05.986Z,100470.50
2022-11-14T22:18:56.301Z,100468.59
2022-11-14T22:21:43.465Z,100466.25
2022-11-14T22:24:28.765Z,100477.00
2022-11-14T22:27:13.936Z,100473.81
2022-11-14T22:29:59.163Z,100471.66
2022-11-14T22:32:44.323Z,100472.72
2022-11-14T22:35:29.970Z,100474.31
2022-11-14T22:38:15.323Z,100471.91
2022-11-14T22:41:01.287Z,100474.91
2022-11-14T22:43:47.161Z,100469.81
2022-11-14T22:46:32.604Z,100463.03
2022-11-14T22:49:21.052Z,100467.84
2022-11-14T22:52:06.748Z,100474.56
2022-11-14T22:54:51.831Z,100468.69
2022-11-14T22:57:37.264Z,100471.13
2022-11-14T23:00:22.370Z,100472.72
2022-11-14T23:03:07.812Z,100462.22
2022-11-14T23:05:53.137Z,100463.50
2022-11-14T23:08:38.861Z,100461.31
2022-11-14T23:11:30.543Z,100459.19
2022-11-14T23:14:16.100Z,100456.81
2022-11-14T23:17:01.357Z,100459.53
2022-11-14T23:19:46.732Z,100459.78
2022-11-14T23:22:32.048Z,100458.25
2022-11-14T23:25:17.544Z,100456.66
2022-11-14T23:28:02.780Z,100463.13
2022-11-14T23:30:48.173Z,100461.53
2022-11-14T23:33:33.770Z,100459.41
2022-11-14T23:36:19.643Z,100451.88
2022-11-14T23:39:05.012Z,100448.66
2022-11-14T23:41:50.253Z,100442.19
2022-11-14T23:44:35.679Z,100439.25
2022-11-14T23:47:20.800Z,100432.78
2022-11-14T23:50:06.425Z,100439.50
2022-11-14T23:52:51.429Z,100438.72
2022-11-14T23:55:37.231Z,100438.94
2022-11-14T23:58:23.918Z,100436.28
